Terminal Aerodrome Forecast
Issued by NWS Pueblo, CO

Home | Current Version | Previous Version | Text Only | Print | Product List | Glossary On
Versions: 1 2 3 4 5 6 7 8 9 10 11 12 13 14 15 16 17 18 19 20 21 22 23 24 25
000
FTUS45 KPUB 220212 AAB
TAFCOS
TAF AMD
KCOS 220212Z 2202/2224 35020G30KT P6SM VCTS SCT080CB BKN090CB
      TEMPO 2202/2204 VRB20G40KT 5SM -TSRA BKN030CB
     FM220400 34015G25KT P6SM VCTS SCT050CB BKN100
     FM220700 VRB06KT P6SM FEW040 SCT100 BKN150
     FM221800 06007G17KT P6SM VCTS FEW050 SCT060CB BKN080=

USA.gov is the U.S. government's official web portal to all federal, state and local government web resources and services.